Time;durP1;ratioP1;P1;durP2;ratioP2;P2;SDS_P1;SDS_P2;PMS_P1;PMS_P2;Temp;Humidity;BMP_temperature;BMP_pressure;BME280_temperature;BME280_humidity;BME280_pressure;Samples;Min_cycle;Max_cycle;Signal;HPM_P1;HPM_P2
2024/04/07 00:00:52;;;;;;;19.17;5.22;;;;;;;;;;4981919;28;20080;-86
2024/04/07 00:03:18;;;;;;;15.02;4.60;;;;;;;;;;4983113;28;20711;-86
2024/04/07 00:05:52;;;;;;;18.15;4.13;;;;;;;;;;4990017;28;20042;-85
2024/04/07 00:08:19;;;;;;;13.93;3.83;;;;;;;;;;4992266;28;20048;-86
2024/04/07 00:10:45;;;;;;;14.50;4.05;;;;;;;;;;4981232;28;20059;-85
2024/04/07 00:13:12;;;;;;;14.85;3.80;;;;;;;;;;5004848;28;20034;-85
2024/04/07 00:15:40;;;;;;;15.70;3.70;;;;;;;;;;4987076;28;20064;-86
2024/04/07 00:18:10;;;;;;;13.95;4.28;;;;;;;;;;4989416;28;20037;-86
2024/04/07 00:20:40;;;;;;;15.30;4.70;;;;;;;;;;5009258;28;20041;-85
2024/04/07 00:23:06;;;;;;;12.25;3.97;;;;;;;;;;4989242;28;20049;-85
2024/04/07 00:25:32;;;;;;;15.48;4.93;;;;;;;;;;4990399;28;20065;-85
2024/04/07 00:27:58;;;;;;;13.85;3.90;;;;;;;;;;4990680;28;20153;-86
2024/04/07 00:30:25;;;;;;;16.90;4.13;;;;;;;;;;5005659;28;20060;-85
2024/04/07 00:32:51;;;;;;;13.50;3.88;;;;;;;;;;4986021;28;20036;-86
2024/04/07 00:35:18;;;;;;;16.13;3.90;;;;;;;;;;4992068;28;20121;-86
2024/04/07 00:37:45;;;;;;;13.38;4.00;;;;;;;;;;5007608;28;20371;-86
2024/04/07 00:40:11;;;;;;;12.43;3.65;;;;;;;;;;4986224;28;20033;-84
2024/04/07 00:42:37;;;;;;;16.92;4.00;;;;;;;;;;5002948;28;20088;-86
2024/04/07 00:45:04;;;;;;;12.00;3.72;;;;;;;;;;5004522;28;20034;-84
2024/04/07 00:47:30;;;;;;;13.90;4.03;;;;;;;;;;4985734;28;20781;-84
2024/04/07 00:49:57;;;;;;;13.23;3.88;;;;;;;;;;5003966;28;20037;-85
2024/04/07 00:52:24;;;;;;;13.38;4.05;;;;;;;;;;4986020;28;20069;-85
2024/04/07 00:54:50;;;;;;;15.80;4.20;;;;;;;;;;5000885;28;20076;-85
2024/04/07 00:57:17;;;;;;;18.88;4.07;;;;;;;;;;5007409;28;20025;-84
2024/04/07 00:59:43;;;;;;;14.57;3.92;;;;;;;;;;4985950;28;20064;-84
2024/04/07 01:02:10;;;;;;;13.10;4.15;;;;;;;;;;5019184;28;20021;-85
2024/04/07 01:04:36;;;;;;;15.20;4.40;;;;;;;;;;5000896;28;20092;-85
2024/04/07 01:07:02;;;;;;;17.85;4.30;;;;;;;;;;5010340;28;20018;-84
2024/04/07 01:09:29;;;;;;;15.07;4.25;;;;;;;;;;5027165;28;20676;-85
2024/04/07 01:11:55;;;;;;;13.70;4.05;;;;;;;;;;5005258;28;20084;-84
2024/04/07 01:14:21;;;;;;;16.90;4.00;;;;;;;;;;5021429;28;20040;-85
2024/04/07 01:16:50;;;;;;;16.23;4.35;;;;;;;;;;5005753;28;20665;-86
2024/04/07 01:19:17;;;;;;;15.80;4.10;;;;;;;;;;5018605;28;20064;-86
2024/04/07 01:21:43;;;;;;;16.33;3.90;;;;;;;;;;5010884;28;20009;-85
2024/04/07 01:24:12;;;;;;;13.10;3.78;;;;;;;;;;5010212;28;20076;-85
2024/04/07 01:26:44;;;;;;;15.93;3.83;;;;;;;;;;5006181;28;20042;-85
2024/04/07 01:29:10;;;;;;;14.73;4.00;;;;;;;;;;4992752;28;20037;-83
2024/04/07 01:31:37;;;;;;;13.60;4.18;;;;;;;;;;4990584;28;20072;-85
2024/04/07 01:34:04;;;;;;;16.95;4.00;;;;;;;;;;5009943;28;20038;-84
2024/04/07 01:36:30;;;;;;;13.25;3.83;;;;;;;;;;4989159;28;20036;-86
2024/04/07 01:38:56;;;;;;;18.75;4.22;;;;;;;;;;4989852;28;20039;-84
2024/04/07 01:41:22;;;;;;;20.25;3.97;;;;;;;;;;4993339;28;20033;-84
2024/04/07 01:43:48;;;;;;;17.45;4.15;;;;;;;;;;4989846;28;20033;-84
2024/04/07 01:46:15;;;;;;;14.80;3.92;;;;;;;;;;5011840;28;20037;-87
2024/04/07 01:48:41;;;;;;;12.95;4.13;;;;;;;;;;4993154;28;20041;-85
2024/04/07 01:51:08;;;;;;;14.48;3.90;;;;;;;;;;5011460;28;20111;-84
2024/04/07 01:53:37;;;;;;;18.27;4.35;;;;;;;;;;5006855;28;20045;-85
2024/04/07 01:56:03;;;;;;;14.77;4.35;;;;;;;;;;5007057;28;20030;-84
2024/04/07 01:58:29;;;;;;;17.85;3.58;;;;;;;;;;4988473;28;20030;-84
2024/04/07 02:00:58;;;;;;;16.23;4.65;;;;;;;;;;4993241;28;20044;-85
2024/04/07 02:03:27;;;;;;;14.88;4.07;;;;;;;;;;5015069;28;20461;-84
2024/04/07 02:05:54;;;;;;;11.93;3.10;;;;;;;;;;4998248;28;20052;-86
2024/04/07 02:08:23;;;;;;;16.13;3.33;;;;;;;;;;5009922;28;20026;-84
2024/04/07 02:10:54;;;;;;;13.30;3.80;;;;;;;;;;4989574;28;20066;-85
2024/04/07 02:13:22;;;;;;;14.90;3.45;;;;;;;;;;4991139;28;20099;-87
2024/04/07 02:15:50;;;;;;;16.85;3.78;;;;;;;;;;4991423;28;20114;-85
2024/04/07 02:18:16;;;;;;;15.05;3.97;;;;;;;;;;5003664;28;20120;-86
2024/04/07 02:20:53;;;;;;;14.80;3.65;;;;;;;;;;4992961;28;20057;-85
2024/04/07 02:23:20;;;;;;;14.88;3.63;;;;;;;;;;4996637;28;20045;-86
2024/04/07 02:25:49;;;;;;;14.98;3.80;;;;;;;;;;4980040;28;20034;-84
2024/04/07 02:28:18;;;;;;;14.32;4.07;;;;;;;;;;4996637;28;20045;-86
2024/04/07 02:30:49;;;;;;;14.90;3.65;;;;;;;;;;4991243;28;20065;-86
2024/04/07 02:33:19;;;;;;;16.45;4.07;;;;;;;;;;4998738;28;20768;-86
2024/04/07 02:35:47;;;;;;;16.20;4.18;;;;;;;;;;4989461;28;20038;-86
2024/04/07 02:38:15;;;;;;;14.25;3.67;;;;;;;;;;4991602;28;20034;-86
2024/04/07 02:40:42;;;;;;;12.93;3.53;;;;;;;;;;4993974;28;20057;-86
2024/04/07 02:43:10;;;;;;;13.88;3.22;;;;;;;;;;5013380;28;20112;-85
2024/04/07 02:48:26;;;;;;;13.03;2.70;;;;;;;;;;5010788;28;20048;-85
2024/04/07 02:50:54;;;;;;;13.90;2.80;;;;;;;;;;4991331;28;20046;-87
2024/04/07 02:53:22;;;;;;;16.63;3.13;;;;;;;;;;4998364;28;20062;-86
2024/04/07 02:55:49;;;;;;;12.60;2.60;;;;;;;;;;4995090;28;20049;-85
2024/04/07 02:58:17;;;;;;;13.68;2.47;;;;;;;;;;5021324;28;20032;-86
2024/04/07 03:00:44;;;;;;;14.80;2.70;;;;;;;;;;4998435;28;20052;-85
2024/04/07 03:03:12;;;;;;;12.75;2.60;;;;;;;;;;4997513;28;20029;-86
2024/04/07 03:05:38;;;;;;;13.20;2.60;;;;;;;;;;4992316;28;20037;-85
2024/04/07 03:08:05;;;;;;;12.82;2.80;;;;;;;;;;4993567;28;20506;-86
2024/04/07 03:10:32;;;;;;;15.05;3.10;;;;;;;;;;5011351;28;20037;-85
2024/04/07 03:12:58;;;;;;;13.68;2.75;;;;;;;;;;4992529;28;20046;-86
2024/04/07 03:15:26;;;;;;;10.68;2.55;;;;;;;;;;4991033;28;20034;-86
2024/04/07 03:17:52;;;;;;;14.70;2.75;;;;;;;;;;4992044;28;20032;-86
2024/04/07 03:20:19;;;;;;;14.07;2.35;;;;;;;;;;5008571;28;20022;-86
2024/04/07 03:22:45;;;;;;;15.07;2.70;;;;;;;;;;4996394;28;20148;-84
2024/04/07 03:25:11;;;;;;;15.68;2.83;;;;;;;;;;4990506;28;20133;-85
2024/04/07 03:27:38;;;;;;;12.02;2.55;;;;;;;;;;4996497;28;20025;-85
2024/04/07 03:30:06;;;;;;;12.88;2.72;;;;;;;;;;5003530;28;20095;-84
2024/04/07 03:32:34;;;;;;;12.70;2.47;;;;;;;;;;5036568;28;20033;-84
2024/04/07 03:35:03;;;;;;;16.23;2.90;;;;;;;;;;5021090;28;20036;-87
2024/04/07 03:37:33;;;;;;;11.77;2.08;;;;;;;;;;5030161;28;20048;-86
2024/04/07 03:39:59;;;;;;;16.83;2.78;;;;;;;;;;5031510;28;20028;-87
2024/04/07 03:42:27;;;;;;;14.15;2.58;;;;;;;;;;5039782;28;20052;-87
2024/04/07 03:44:54;;;;;;;15.07;2.90;;;;;;;;;;5029405;28;20029;-87
2024/04/07 03:47:21;;;;;;;12.18;2.50;;;;;;;;;;5028556;28;20025;-84
2024/04/07 03:49:49;;;;;;;13.65;2.60;;;;;;;;;;5025455;28;20750;-84
2024/04/07 03:52:15;;;;;;;12.95;2.63;;;;;;;;;;5013042;28;20029;-84
2024/04/07 03:54:43;;;;;;;10.55;2.10;;;;;;;;;;5015184;28;20043;-86
2024/04/07 03:57:11;;;;;;;13.75;2.30;;;;;;;;;;5026821;28;20369;-85
2024/04/07 03:59:42;;;;;;;10.60;2.42;;;;;;;;;;5028481;28;20041;-85
2024/04/07 04:02:08;;;;;;;13.50;2.60;;;;;;;;;;5009380;28;20037;-86
2024/04/07 04:04:35;;;;;;;15.95;2.88;;;;;;;;;;5011376;28;20122;-86
2024/04/07 04:07:04;;;;;;;14.93;2.42;;;;;;;;;;5029990;28;20107;-87
2024/04/07 04:09:34;;;;;;;16.05;3.00;;;;;;;;;;5025632;28;20052;-85
2024/04/07 04:12:04;;;;;;;14.70;2.78;;;;;;;;;;5027036;28;20048;-85
2024/04/07 04:14:31;;;;;;;15.30;2.33;;;;;;;;;;5009228;28;20077;-85
2024/04/07 04:16:58;;;;;;;16.83;2.67;;;;;;;;;;5005281;28;20029;-85
2024/04/07 04:19:27;;;;;;;14.75;2.30;;;;;;;;;;5026643;28;20417;-85
2024/04/07 04:21:58;;;;;;;11.60;2.25;;;;;;;;;;5029114;28;20128;-85
2024/04/07 04:24:25;;;;;;;13.35;2.58;;;;;;;;;;5010919;28;20040;-85
2024/04/07 04:26:51;;;;;;;15.15;3.08;;;;;;;;;;5025780;28;20148;-83
2024/04/07 04:29:19;;;;;;;13.88;2.78;;;;;;;;;;5027318;28;20175;-85
2024/04/07 04:31:46;;;;;;;11.07;2.47;;;;;;;;;;4985998;28;20540;-85
2024/04/07 04:34:13;;;;;;;13.65;3.00;;;;;;;;;;5006002;28;20589;-86
2024/04/07 04:36:41;;;;;;;15.07;3.40;;;;;;;;;;5004982;28;20679;-86
2024/04/07 04:39:09;;;;;;;13.63;3.20;;;;;;;;;;4985858;28;20038;-86
2024/04/07 04:41:37;;;;;;;13.68;3.08;;;;;;;;;;5002133;28;20109;-85
2024/04/07 04:44:05;;;;;;;14.40;2.92;;;;;;;;;;4999741;28;20095;-86
2024/04/07 04:46:33;;;;;;;13.80;2.83;;;;;;;;;;4987104;28;20097;-86
2024/04/07 04:49:02;;;;;;;13.27;3.17;;;;;;;;;;5004130;28;20049;-86
2024/04/07 04:51:31;;;;;;;14.35;3.20;;;;;;;;;;5006483;28;20484;-85
2024/04/07 04:54:02;;;;;;;15.85;3.70;;;;;;;;;;5004200;28;20124;-85
2024/04/07 04:56:28;;;;;;;18.05;3.15;;;;;;;;;;4987157;28;20136;-84
2024/04/07 04:58:57;;;;;;;12.40;3.53;;;;;;;;;;5003584;28;20025;-85
2024/04/07 05:01:24;;;;;;;12.18;2.97;;;;;;;;;;4990775;28;20072;-84
2024/04/07 05:03:51;;;;;;;13.35;3.15;;;;;;;;;;4983235;28;20033;-85
2024/04/07 05:06:19;;;;;;;14.93;2.95;;;;;;;;;;4971253;28;20052;-85
2024/04/07 05:08:48;;;;;;;17.80;3.30;;;;;;;;;;4980324;28;20037;-85
2024/04/07 05:11:17;;;;;;;12.27;2.67;;;;;;;;;;4987338;28;20050;-86
2024/04/07 05:13:46;;;;;;;14.07;2.58;;;;;;;;;;4999867;28;20038;-85
2024/04/07 05:16:16;;;;;;;15.27;2.92;;;;;;;;;;4998853;28;20092;-85
2024/04/07 05:18:44;;;;;;;14.40;3.20;;;;;;;;;;4982254;28;20419;-84
2024/04/07 05:21:14;;;;;;;11.32;2.80;;;;;;;;;;5003400;28;20915;-86
2024/04/07 05:23:44;;;;;;;11.75;3.05;;;;;;;;;;5000090;28;20444;-85
2024/04/07 05:26:20;;;;;;;10.93;2.65;;;;;;;;;;4986374;28;20451;-86
2024/04/07 05:28:46;;;;;;;14.00;2.88;;;;;;;;;;4983194;28;20026;-84
2024/04/07 05:31:13;;;;;;;10.85;2.50;;;;;;;;;;5019535;28;20060;-85
2024/04/07 05:33:43;;;;;;;12.77;3.00;;;;;;;;;;5004812;28;20077;-86
2024/04/07 05:36:10;;;;;;;16.05;2.80;;;;;;;;;;5006437;28;20033;-85
2024/04/07 05:38:37;;;;;;;13.43;3.38;;;;;;;;;;5009474;28;20026;-85
2024/04/07 05:41:04;;;;;;;12.15;3.10;;;;;;;;;;5007829;28;20187;-84
2024/04/07 05:43:33;;;;;;;11.60;3.08;;;;;;;;;;5011076;28;20048;-85
2024/04/07 05:46:03;;;;;;;12.25;3.10;;;;;;;;;;5014013;28;20036;-86
2024/04/07 05:48:29;;;;;;;12.70;2.85;;;;;;;;;;5017101;28;20025;-86
2024/04/07 05:50:56;;;;;;;11.73;2.47;;;;;;;;;;5031573;28;20032;-86
2024/04/07 05:53:23;;;;;;;13.88;2.90;;;;;;;;;;5023282;28;20032;-86
2024/04/07 05:55:49;;;;;;;13.02;3.22;;;;;;;;;;5039333;28;20037;-86
2024/04/07 05:58:15;;;;;;;10.38;2.53;;;;;;;;;;5036196;28;20009;-86
2024/04/07 06:00:42;;;;;;;9.45;2.53;;;;;;;;;;5015375;28;20587;-86
2024/04/07 06:03:08;;;;;;;14.13;3.15;;;;;;;;;;5010908;28;20145;-84
2024/04/07 06:05:36;;;;;;;11.70;3.03;;;;;;;;;;5015068;28;20132;-85
2024/04/07 06:08:02;;;;;;;10.52;2.33;;;;;;;;;;5037820;28;20068;-85
2024/04/07 06:10:30;;;;;;;12.82;2.65;;;;;;;;;;5034783;28;20032;-86
2024/04/07 06:12:59;;;;;;;12.15;2.97;;;;;;;;;;5023753;28;20048;-85
2024/04/07 06:15:26;;;;;;;13.23;3.05;;;;;;;;;;5031845;28;20037;-86
2024/04/07 06:17:57;;;;;;;15.52;3.55;;;;;;;;;;5030233;28;20032;-86
2024/04/07 06:20:26;;;;;;;14.18;3.00;;;;;;;;;;5014702;28;20041;-86
2024/04/07 06:22:54;;;;;;;11.95;2.80;;;;;;;;;;5012053;28;20649;-85
2024/04/07 06:25:20;;;;;;;10.98;2.80;;;;;;;;;;5018453;28;20033;-85
2024/04/07 06:27:51;;;;;;;15.90;3.10;;;;;;;;;;5030716;28;20037;-86
2024/04/07 06:30:18;;;;;;;10.38;3.00;;;;;;;;;;5016129;28;20594;-88
2024/04/07 06:32:46;;;;;;;11.20;2.90;;;;;;;;;;5001620;28;20047;-86
2024/04/07 06:35:12;;;;;;;11.00;2.88;;;;;;;;;;4998256;28;20029;-87
2024/04/07 06:37:42;;;;;;;13.20;3.75;;;;;;;;;;5009816;28;20084;-85
2024/04/07 06:40:11;;;;;;;14.80;3.92;;;;;;;;;;5002867;28;20048;-84
2024/04/07 06:42:38;;;;;;;17.63;3.70;;;;;;;;;;4994091;28;20033;-85
2024/04/07 06:45:04;;;;;;;14.70;3.30;;;;;;;;;;4995390;28;20308;-85
2024/04/07 06:47:30;;;;;;;12.20;2.90;;;;;;;;;;4997721;28;20033;-89
2024/04/07 06:49:57;;;;;;;10.93;2.92;;;;;;;;;;5017081;28;20036;-88
2024/04/07 06:52:24;;;;;;;16.85;3.70;;;;;;;;;;4998480;28;20118;-88
2024/04/07 06:54:50;;;;;;;16.15;3.28;;;;;;;;;;4993517;28;20034;-89
2024/04/07 06:57:18;;;;;;;15.40;3.17;;;;;;;;;;5000406;28;20584;-89
2024/04/07 06:59:44;;;;;;;11.18;2.67;;;;;;;;;;4992459;28;20096;-89
2024/04/07 07:02:10;;;;;;;17.02;3.30;;;;;;;;;;4995660;28;20029;-90
2024/04/07 07:04:36;;;;;;;17.73;3.63;;;;;;;;;;4999722;28;20435;-89
2024/04/07 07:07:02;;;;;;;20.13;3.90;;;;;;;;;;5004671;28;20032;-89
2024/04/07 07:09:29;;;;;;;21.27;4.43;;;;;;;;;;4993883;28;20026;-89
2024/04/07 07:11:55;;;;;;;26.13;4.80;;;;;;;;;;4991685;28;20053;-90
2024/04/07 07:14:21;;;;;;;26.20;4.60;;;;;;;;;;5001332;28;20038;-89
2024/04/07 07:16:48;;;;;;;19.27;3.97;;;;;;;;;;4999367;28;20018;-91
2024/04/07 07:19:15;;;;;;;21.17;3.92;;;;;;;;;;4995405;28;20041;-89
2024/04/07 07:21:41;;;;;;;21.42;4.38;;;;;;;;;;4996646;28;20111;-89
2024/04/07 07:24:07;;;;;;;17.85;4.07;;;;;;;;;;4997804;28;20079;-88
2024/04/07 07:26:34;;;;;;;19.20;4.40;;;;;;;;;;4997388;28;20025;-89
2024/04/07 07:29:00;;;;;;;20.90;4.15;;;;;;;;;;5019849;28;20029;-89
2024/04/07 07:31:28;;;;;;;14.48;3.80;;;;;;;;;;5004307;28;20046;-89
2024/04/07 07:33:54;;;;;;;15.55;3.75;;;;;;;;;;4990977;28;20025;-88
2024/04/07 07:36:20;;;;;;;12.43;3.47;;;;;;;;;;4990277;28;20025;-89
2024/04/07 07:38:47;;;;;;;14.60;4.35;;;;;;;;;;4990806;28;20029;-88
2024/04/07 07:41:19;;;;;;;15.18;4.28;;;;;;;;;;4995604;28;20025;-88
2024/04/07 07:43:51;;;;;;;15.13;3.95;;;;;;;;;;5005154;28;20033;-89
2024/04/07 07:46:17;;;;;;;15.32;4.00;;;;;;;;;;4997923;28;20149;-88
2024/04/07 07:48:43;;;;;;;11.02;3.53;;;;;;;;;;4997418;28;20049;-84
2024/04/07 07:51:10;;;;;;;11.18;3.60;;;;;;;;;;4997776;28;20030;-89
2024/04/07 07:53:39;;;;;;;15.93;3.67;;;;;;;;;;5006468;28;20522;-82
2024/04/07 07:56:06;;;;;;;11.85;3.50;;;;;;;;;;5003117;28;20498;-85
2024/04/07 07:58:36;;;;;;;11.43;3.53;;;;;;;;;;4993952;28;20102;-87
2024/04/07 08:01:02;;;;;;;14.13;3.60;;;;;;;;;;5014899;28;20021;-87
2024/04/07 08:03:29;;;;;;;11.13;3.40;;;;;;;;;;4993745;28;20042;-87
2024/04/07 08:05:57;;;;;;;14.70;4.20;;;;;;;;;;4990076;28;20037;-87
2024/04/07 08:08:24;;;;;;;15.40;4.38;;;;;;;;;;4996429;28;20034;-88
2024/04/07 08:10:50;;;;;;;17.98;4.45;;;;;;;;;;4992680;28;20049;-82
2024/04/07 08:13:16;;;;;;;16.83;5.18;;;;;;;;;;4987765;28;20124;-86
2024/04/07 08:15:47;;;;;;;17.77;5.15;;;;;;;;;;4995657;28;20029;-85
2024/04/07 08:18:14;;;;;;;18.08;5.05;;;;;;;;;;4999771;28;20083;-86
2024/04/07 08:20:41;;;;;;;16.83;5.43;;;;;;;;;;4986755;28;20054;-84
2024/04/07 08:23:08;;;;;;;15.90;5.22;;;;;;;;;;4991061;28;20090;-85
2024/04/07 08:25:38;;;;;;;20.25;7.38;;;;;;;;;;5002999;28;20619;-82
2024/04/07 08:28:05;;;;;;;18.85;6.60;;;;;;;;;;4983413;28;20072;-83
2024/04/07 08:30:33;;;;;;;18.52;6.35;;;;;;;;;;4987960;28;20283;-85
2024/04/07 08:33:00;;;;;;;16.23;5.75;;;;;;;;;;5007416;28;20040;-86
2024/04/07 08:35:26;;;;;;;28.70;16.55;;;;;;;;;;4986582;28;20025;-83
2024/04/07 08:37:54;;;;;;;30.83;18.45;;;;;;;;;;4980239;28;20040;-81
2024/04/07 08:40:26;;;;;;;27.65;14.80;;;;;;;;;;5005572;28;20029;-82
2024/04/07 08:42:53;;;;;;;18.83;8.88;;;;;;;;;;4995506;28;20041;-83
2024/04/07 08:45:21;;;;;;;15.85;5.47;;;;;;;;;;5005445;28;20471;-82
2024/04/07 08:47:51;;;;;;;18.90;5.57;;;;;;;;;;4968625;28;20045;-83
2024/04/07 08:50:22;;;;;;;15.82;5.40;;;;;;;;;;4988874;28;20026;-82
2024/04/07 08:52:49;;;;;;;18.92;5.68;;;;;;;;;;4990895;28;20076;-84
2024/04/07 08:55:15;;;;;;;18.50;5.18;;;;;;;;;;4999053;28;20179;-82
2024/04/07 08:57:43;;;;;;;17.63;5.35;;;;;;;;;;4982983;28;20125;-83
2024/04/07 09:00:11;;;;;;;18.95;5.10;;;;;;;;;;4986225;28;20113;-84
2024/04/07 09:02:39;;;;;;;19.65;5.57;;;;;;;;;;5001675;28;20033;-85
2024/04/07 09:05:05;;;;;;;18.50;5.35;;;;;;;;;;4982521;28;20141;-85
2024/04/07 09:07:33;;;;;;;17.42;5.40;;;;;;;;;;4998271;28;20029;-85
2024/04/07 09:09:59;;;;;;;14.77;5.35;;;;;;;;;;4996759;28;20076;-90
2024/04/07 09:12:28;;;;;;;22.95;5.65;;;;;;;;;;5017484;28;20073;-88
2024/04/07 09:14:55;;;;;;;17.58;5.28;;;;;;;;;;4995139;28;20452;-88
2024/04/07 09:17:21;;;;;;;16.20;5.07;;;;;;;;;;4993029;28;20037;-86
2024/04/07 09:19:50;;;;;;;21.35;5.47;;;;;;;;;;4988317;28;20056;-87
2024/04/07 09:22:16;;;;;;;23.70;14.85;;;;;;;;;;4995634;28;20014;-84
2024/04/07 09:24:42;;;;;;;18.85;6.85;;;;;;;;;;4991827;28;20046;-83
2024/04/07 09:27:10;;;;;;;27.50;18.27;;;;;;;;;;4996120;28;20029;-86
2024/04/07 09:29:41;;;;;;;25.05;12.40;;;;;;;;;;5005168;28;20650;-87
2024/04/07 09:32:09;;;;;;;21.85;7.90;;;;;;;;;;5015106;28;20045;-85
2024/04/07 09:34:37;;;;;;;17.95;6.57;;;;;;;;;;5000642;28;20025;-89
2024/04/07 09:37:05;;;;;;;17.80;5.95;;;;;;;;;;5000956;28;20045;-87
2024/04/07 09:39:33;;;;;;;17.38;5.60;;;;;;;;;;5008619;28;20121;-87
2024/04/07 09:42:00;;;;;;;26.15;6.55;;;;;;;;;;5016750;28;21097;-84
2024/04/07 09:44:33;;;;;;;17.48;5.40;;;;;;;;;;4997012;28;20033;-83
2024/04/07 09:47:06;;;;;;;19.52;4.85;;;;;;;;;;5010589;28;20026;-86
2024/04/07 09:49:35;;;;;;;12.98;4.45;;;;;;;;;;5002766;28;20124;-86
2024/04/07 09:52:04;;;;;;;18.02;5.03;;;;;;;;;;5001278;28;20335;-85
2024/04/07 09:54:40;;;;;;;16.27;4.80;;;;;;;;;;5013422;28;20267;-83
2024/04/07 09:57:10;;;;;;;15.60;4.30;;;;;;;;;;5000344;28;20025;-85
2024/04/07 09:59:40;;;;;;;15.38;4.70;;;;;;;;;;5005255;28;20038;-85
2024/04/07 10:02:07;;;;;;;20.85;5.70;;;;;;;;;;4995045;28;20038;-84
2024/04/07 10:04:36;;;;;;;15.20;5.15;;;;;;;;;;5004184;28;20622;-82
2024/04/07 10:07:04;;;;;;;16.55;5.45;;;;;;;;;;5008296;28;20086;-85
2024/04/07 10:09:32;;;;;;;13.63;5.25;;;;;;;;;;4997046;28;20116;-84
2024/04/07 10:11:58;;;;;;;17.55;5.50;;;;;;;;;;4995405;28;20042;-83
2024/04/07 10:14:40;;;;;;;19.20;4.97;;;;;;;;;;5004899;28;20051;-84
2024/04/07 10:17:13;;;;;;;19.65;5.18;;;;;;;;;;4991579;28;20038;-82
2024/04/07 10:19:45;;;;;;;15.70;5.40;;;;;;;;;;5007981;28;20480;-85
2024/04/07 10:22:12;;;;;;;18.90;6.00;;;;;;;;;;4978296;28;20334;-85
2024/04/07 10:24:41;;;;;;;16.67;5.88;;;;;;;;;;4975770;28;20029;-84
2024/04/07 10:27:11;;;;;;;15.82;5.50;;;;;;;;;;4990956;28;20841;-84
2024/04/07 10:29:39;;;;;;;22.20;5.28;;;;;;;;;;5004508;28;20041;-85
2024/04/07 10:32:17;;;;;;;19.38;5.50;;;;;;;;;;5001847;28;20049;-85
2024/04/07 10:35:03;;;;;;;24.05;6.53;;;;;;;;;;5017815;28;20068;-85
2024/04/07 10:37:33;;;;;;;17.95;6.30;;;;;;;;;;5022307;28;20624;-85
2024/04/07 10:39:59;;;;;;;18.65;5.88;;;;;;;;;;5027393;28;20025;-85
2024/04/07 10:42:30;;;;;;;19.42;6.50;;;;;;;;;;5007417;28;20444;-83
2024/04/07 10:44:56;;;;;;;16.60;5.43;;;;;;;;;;5010154;28;20037;-83
2024/04/07 10:47:24;;;;;;;18.98;5.55;;;;;;;;;;5007183;28;20040;-82
2024/04/07 10:49:53;;;;;;;19.45;5.85;;;;;;;;;;4999583;28;20048;-83
2024/04/07 10:52:19;;;;;;;19.63;5.13;;;;;;;;;;5012922;28;20064;-85
2024/04/07 10:54:46;;;;;;;17.02;5.25;;;;;;;;;;5000056;28;20044;-84
2024/04/07 10:57:14;;;;;;;18.85;5.45;;;;;;;;;;5023190;28;20040;-83
2024/04/07 10:59:40;;;;;;;19.65;5.78;;;;;;;;;;5006941;28;20626;-84
2024/04/07 11:02:08;;;;;;;17.50;5.07;;;;;;;;;;5004671;28;20029;-85
2024/04/07 11:04:39;;;;;;;21.70;5.22;;;;;;;;;;5001248;28;20037;-82
2024/04/07 11:07:07;;;;;;;16.73;5.50;;;;;;;;;;5019899;28;20036;-81
2024/04/07 11:09:35;;;;;;;18.58;5.63;;;;;;;;;;5001619;28;20052;-83
2024/04/07 11:12:04;;;;;;;18.55;4.97;;;;;;;;;;5004184;28;20121;-83
2024/04/07 11:14:36;;;;;;;15.52;4.72;;;;;;;;;;5005996;28;20037;-87
2024/04/07 11:17:11;;;;;;;19.27;5.10;;;;;;;;;;5028948;28;20033;-85
2024/04/07 11:19:38;;;;;;;25.88;5.05;;;;;;;;;;5005777;28;20029;-85
2024/04/07 11:22:06;;;;;;;18.15;4.82;;;;;;;;;;5014409;28;20820;-84
2024/04/07 11:24:34;;;;;;;24.20;4.95;;;;;;;;;;5025993;28;20766;-84
2024/04/07 11:27:03;;;;;;;20.73;5.53;;;;;;;;;;5006516;28;20036;-84
2024/04/07 11:29:30;;;;;;;18.02;5.15;;;;;;;;;;5022868;28;20120;-84
2024/04/07 11:31:57;;;;;;;20.13;5.20;;;;;;;;;;5019558;28;20411;-84
2024/04/07 11:34:32;;;;;;;20.33;5.22;;;;;;;;;;5003003;28;20068;-83
2024/04/07 11:36:59;;;;;;;20.17;5.15;;;;;;;;;;5005253;28;20121;-83
2024/04/07 11:39:25;;;;;;;18.85;5.10;;;;;;;;;;5000982;28;20539;-85
2024/04/07 11:41:52;;;;;;;20.05;4.90;;;;;;;;;;5000227;28;20223;-85
2024/04/07 11:44:18;;;;;;;16.67;4.88;;;;;;;;;;5003952;28;20119;-83
2024/04/07 11:46:44;;;;;;;17.70;5.45;;;;;;;;;;5017216;28;20033;-83
2024/04/07 11:49:10;;;;;;;21.73;5.20;;;;;;;;;;5003307;28;20036;-86
2024/04/07 11:51:39;;;;;;;18.23;5.30;;;;;;;;;;5000331;28;20068;-84
2024/04/07 11:54:09;;;;;;;18.05;5.00;;;;;;;;;;5004705;28;20038;-83
2024/04/07 11:56:41;;;;;;;20.02;5.68;;;;;;;;;;5015053;28;20021;-85
2024/04/07 11:59:22;;;;;;;18.45;5.40;;;;;;;;;;5029983;28;20045;-84
2024/04/07 12:01:52;;;;;;;27.45;5.88;;;;;;;;;;5017712;28;20354;-88
2024/04/07 12:04:35;;;;;;;17.50;5.50;;;;;;;;;;5021098;28;20447;-84
2024/04/07 12:07:05;;;;;;;23.25;5.70;;;;;;;;;;5010821;28;20025;-85
2024/04/07 12:09:57;;;;;;;21.50;6.22;;;;;;;;;;5030497;28;20033;-84
2024/04/07 12:12:33;;;;;;;21.42;5.55;;;;;;;;;;5000490;28;20535;-85
2024/04/07 12:15:04;;;;;;;22.35;5.85;;;;;;;;;;5014206;28;20431;-81
2024/04/07 12:17:31;;;;;;;32.00;6.45;;;;;;;;;;5028584;28;20068;-83
2024/04/07 12:20:14;;;;;;;20.00;6.15;;;;;;;;;;5031421;28;20048;-86
2024/04/07 12:22:42;;;;;;;20.60;5.95;;;;;;;;;;5012187;28;20033;-83
2024/04/07 12:25:12;;;;;;;18.30;6.13;;;;;;;;;;5036680;28;20044;-82
2024/04/07 12:27:43;;;;;;;19.65;6.53;;;;;;;;;;5019047;28;20041;-83
2024/04/07 12:30:10;;;;;;;17.65;5.90;;;;;;;;;;5041360;28;20048;-86
2024/04/07 12:32:37;;;;;;;18.38;5.53;;;;;;;;;;5017362;28;20069;-84
2024/04/07 12:35:08;;;;;;;19.55;6.03;;;;;;;;;;5016518;28;20110;-83
2024/04/07 12:37:36;;;;;;;23.27;5.85;;;;;;;;;;5004215;28;20025;-82
2024/04/07 12:40:04;;;;;;;19.05;5.50;;;;;;;;;;5007750;28;20126;-82
2024/04/07 12:42:36;;;;;;;16.75;5.63;;;;;;;;;;5030521;28;20032;-82
2024/04/07 12:45:17;;;;;;;19.20;5.30;;;;;;;;;;5028563;28;20456;-81
2024/04/07 12:47:45;;;;;;;20.65;5.43;;;;;;;;;;5008358;28;20045;-83
2024/04/07 12:50:11;;;;;;;20.27;5.53;;;;;;;;;;5023378;28;20036;-81
2024/04/07 12:52:42;;;;;;;18.98;5.35;;;;;;;;;;5002215;28;20052;-84
2024/04/07 12:55:09;;;;;;;19.63;5.65;;;;;;;;;;5006387;28;20021;-80
2024/04/07 12:57:37;;;;;;;23.55;5.32;;;;;;;;;;5007461;28;20243;-81
2024/04/07 13:00:14;;;;;;;18.33;5.15;;;;;;;;;;5025321;28;20041;-81
2024/04/07 13:02:42;;;;;;;19.05;5.60;;;;;;;;;;5022084;28;20060;-81
2024/04/07 13:05:09;;;;;;;17.17;5.30;;;;;;;;;;5009200;28;20040;-83
2024/04/07 13:07:36;;;;;;;22.40;5.32;;;;;;;;;;5002650;28;20578;-82
2024/04/07 13:10:08;;;;;;;20.55;4.80;;;;;;;;;;5026013;28;20064;-80
2024/04/07 13:12:37;;;;;;;21.90;5.00;;;;;;;;;;5006864;28;20041;-80
2024/04/07 13:15:13;;;;;;;25.20;5.07;;;;;;;;;;5020392;28;20069;-82
2024/04/07 13:17:40;;;;;;;22.60;5.40;;;;;;;;;;5012310;28;20049;-83
2024/04/07 13:20:27;;;;;;;24.27;5.40;;;;;;;;;;5027828;28;20029;-82
2024/04/07 13:22:54;;;;;;;27.52;5.38;;;;;;;;;;5014745;28;20588;-84
2024/04/07 13:25:21;;;;;;;26.52;5.28;;;;;;;;;;5011384;28;20029;-79
2024/04/07 13:27:51;;;;;;;17.25;4.70;;;;;;;;;;5017543;28;20042;-80
2024/04/07 13:30:18;;;;;;;17.00;4.75;;;;;;;;;;5022123;28;20037;-80
2024/04/07 13:32:45;;;;;;;23.67;5.10;;;;;;;;;;5001038;28;20111;-81
2024/04/07 13:35:11;;;;;;;21.90;4.75;;;;;;;;;;5024396;28;20084;-81
2024/04/07 13:37:38;;;;;;;20.27;4.68;;;;;;;;;;5000061;28;20037;-82
2024/04/07 13:40:04;;;;;;;24.35;5.53;;;;;;;;;;5023215;28;20029;-82
2024/04/07 13:42:30;;;;;;;21.85;5.47;;;;;;;;;;5006464;28;20032;-83
2024/04/07 13:45:00;;;;;;;20.95;6.10;;;;;;;;;;5009402;28;20037;-89
2024/04/07 13:47:27;;;;;;;22.15;5.68;;;;;;;;;;5040286;28;20068;-86
2024/04/07 13:49:54;;;;;;;19.08;4.95;;;;;;;;;;5013951;28;20044;-89
2024/04/07 13:52:20;;;;;;;24.05;4.78;;;;;;;;;;5020501;28;20409;-87
2024/04/07 13:54:46;;;;;;;18.80;4.50;;;;;;;;;;5013827;28;20065;-88
2024/04/07 13:57:16;;;;;;;19.58;5.20;;;;;;;;;;5020091;28;20125;-88
2024/04/07 13:59:43;;;;;;;24.23;4.72;;;;;;;;;;5022030;28;20391;-88
2024/04/07 14:02:10;;;;;;;19.83;4.70;;;;;;;;;;5026037;28;20096;-87
2024/04/07 14:04:45;;;;;;;23.02;4.50;;;;;;;;;;5025523;28;20029;-87
2024/04/07 14:07:14;;;;;;;29.15;5.53;;;;;;;;;;5022690;28;20115;-87
2024/04/07 14:09:41;;;;;;;21.10;5.55;;;;;;;;;;5017437;28;20037;-88
2024/04/07 14:12:09;;;;;;;22.48;5.60;;;;;;;;;;5020510;28;20092;-88
2024/04/07 14:14:38;;;;;;;27.52;6.22;;;;;;;;;;5018807;28;20127;-89
2024/04/07 14:17:08;;;;;;;22.65;4.78;;;;;;;;;;5028267;28;20021;-89
2024/04/07 14:19:39;;;;;;;18.50;4.38;;;;;;;;;;5025191;28;20026;-87
2024/04/07 14:22:09;;;;;;;22.42;4.88;;;;;;;;;;5018794;28;20032;-85
2024/04/07 14:24:38;;;;;;;21.33;4.47;;;;;;;;;;5017296;28;20057;-86
2024/04/07 14:27:14;;;;;;;24.17;4.68;;;;;;;;;;5016190;28;20028;-86
2024/04/07 14:29:51;;;;;;;20.88;4.97;;;;;;;;;;5042630;28;20039;-87
2024/04/07 14:32:20;;;;;;;16.58;4.63;;;;;;;;;;5012748;28;20059;-87
2024/04/07 14:34:47;;;;;;;21.67;4.90;;;;;;;;;;5008972;28;20572;-88
2024/04/07 14:37:16;;;;;;;22.45;5.22;;;;;;;;;;5019193;28;20039;-88
2024/04/07 14:39:44;;;;;;;24.95;5.40;;;;;;;;;;5017026;28;20033;-86